sensor_id;sensor_type;location;lat;lon;timestamp;pressure;altitude;pressure_sealevel;temperature;humidity
64713;BME280;51140;45.340;5.980;2022-11-20T00:00:49;98922.53;;;5.10;100.00
64713;BME280;51140;45.340;5.980;2022-11-20T00:03:15;98918.19;;;5.13;100.00
64713;BME280;51140;45.340;5.980;2022-11-20T00:05:40;98926.13;;;5.02;100.00
64713;BME280;51140;45.340;5.980;2022-11-20T00:08:06;98929.69;;;4.95;100.00
64713;BME280;51140;45.340;5.980;2022-11-20T00:10:31;98935.06;;;4.83;100.00
64713;BME280;51140;45.340;5.980;2022-11-20T00:13:00;98949.72;;;4.78;100.00
64713;BME280;51140;45.340;5.980;2022-11-20T00:15:25;98956.72;;;4.71;100.00
64713;BME280;51140;45.340;5.980;2022-11-20T00:17:51;98969.63;;;4.71;100.00
64713;BME280;51140;45.340;5.980;2022-11-20T00:20:16;98975.69;;;4.69;100.00
64713;BME280;51140;45.340;5.980;2022-11-20T00:22:41;98994.66;;;4.66;100.00
64713;BME280;51140;45.340;5.980;2022-11-20T00:25:07;98996.50;;;4.58;100.00
64713;BME280;51140;45.340;5.980;2022-11-20T00:27:33;99002.56;;;4.54;100.00
64713;BME280;51140;45.340;5.980;2022-11-20T00:29:58;99006.03;;;4.53;100.00
64713;BME280;51140;45.340;5.980;2022-11-20T00:32:23;99011.25;;;4.49;100.00
64713;BME280;51140;45.340;5.980;2022-11-20T00:34:49;99012.19;;;4.45;100.00
64713;BME280;51140;45.340;5.980;2022-11-20T00:37:14;99010.47;;;4.44;100.00
64713;BME280;51140;45.340;5.980;2022-11-20T00:39:39;99021.59;;;4.47;100.00
64713;BME280;51140;45.340;5.980;2022-11-20T00:42:05;99024.88;;;4.58;100.00
64713;BME280;51140;45.340;5.980;2022-11-20T00:44:30;99037.81;;;4.57;100.00
64713;BME280;51140;45.340;5.980;2022-11-20T00:46:55;99038.63;;;4.60;100.00
64713;BME280;51140;45.340;5.980;2022-11-20T00:49:21;99033.41;;;4.63;100.00
64713;BME280;51140;45.340;5.980;2022-11-20T00:51:46;99046.28;;;4.65;100.00
64713;BME280;51140;45.340;5.980;2022-11-20T00:54:12;99049.66;;;4.70;100.00
64713;BME280;51140;45.340;5.980;2022-11-20T00:56:37;99048.81;;;4.69;100.00
64713;BME280;51140;45.340;5.980;2022-11-20T00:59:02;99047.94;;;4.70;100.00
64713;BME280;51140;45.340;5.980;2022-11-20T01:01:28;99056.47;;;4.74;100.00
64713;BME280;51140;45.340;5.980;2022-11-20T01:03:59;99048.81;;;4.68;100.00
64713;BME280;51140;45.340;5.980;2022-11-20T01:06:27;99059.97;;;4.71;100.00
64713;BME280;51140;45.340;5.980;2022-11-20T01:08:55;99061.66;;;4.74;100.00
64713;BME280;51140;45.340;5.980;2022-11-20T01:11:23;99054.72;;;4.76;100.00
64713;BME280;51140;45.340;5.980;2022-11-20T01:13:50;99052.16;;;4.76;100.00
64713;BME280;51140;45.340;5.980;2022-11-20T01:16:22;99065.88;;;4.81;100.00
64713;BME280;51140;45.340;5.980;2022-11-20T01:18:50;99057.22;;;4.85;100.00
64713;BME280;51140;45.340;5.980;2022-11-20T01:21:21;99053.81;;;4.82;100.00
64713;BME280;51140;45.340;5.980;2022-11-20T01:23:48;99067.59;;;4.81;100.00
64713;BME280;51140;45.340;5.980;2022-11-20T01:26:25;99054.78;;;4.73;100.00
64713;BME280;51140;45.340;5.980;2022-11-20T01:28:51;99066.00;;;4.70;100.00
64713;BME280;51140;45.340;5.980;2022-11-20T01:31:20;99073.81;;;4.66;100.00
64713;BME280;51140;45.340;5.980;2022-11-20T01:33:47;99070.38;;;4.64;100.00
64713;BME280;51140;45.340;5.980;2022-11-20T01:36:14;99065.41;;;4.52;100.00
64713;BME280;51140;45.340;5.980;2022-11-20T01:38:40;99074.13;;;4.42;100.00
64713;BME280;51140;45.340;5.980;2022-11-20T01:41:06;99081.13;;;4.30;100.00
64713;BME280;51140;45.340;5.980;2022-11-20T01:43:32;99088.81;;;4.33;100.00
64713;BME280;51140;45.340;5.980;2022-11-20T01:48:39;99094.94;;;4.25;100.00
64713;BME280;51140;45.340;5.980;2022-11-20T01:51:16;99104.44;;;4.21;100.00
64713;BME280;51140;45.340;5.980;2022-11-20T01:53:42;99111.34;;;4.19;100.00
64713;BME280;51140;45.340;5.980;2022-11-20T01:56:09;99117.41;;;4.15;100.00
64713;BME280;51140;45.340;5.980;2022-11-20T01:58:40;99109.66;;;4.17;100.00
64713;BME280;51140;45.340;5.980;2022-11-20T02:01:06;99119.13;;;4.16;100.00
64713;BME280;51140;45.340;5.980;2022-11-20T02:03:31;99117.38;;;4.18;100.00
64713;BME280;51140;45.340;5.980;2022-11-20T02:06:23;99114.84;;;4.14;100.00
64713;BME280;51140;45.340;5.980;2022-11-20T02:08:51;99126.03;;;4.13;100.00
64713;BME280;51140;45.340;5.980;2022-11-20T02:11:16;99131.16;;;4.14;100.00
64713;BME280;51140;45.340;5.980;2022-11-20T02:13:41;99128.63;;;4.09;100.00
64713;BME280;51140;45.340;5.980;2022-11-20T02:16:13;99125.22;;;4.07;100.00
64713;BME280;51140;45.340;5.980;2022-11-20T02:18:39;99125.97;;;4.19;100.00
64713;BME280;51140;45.340;5.980;2022-11-20T02:21:12;99120.69;;;4.29;100.00
64713;BME280;51140;45.340;5.980;2022-11-20T02:24:00;99129.22;;;4.34;100.00
64713;BME280;51140;45.340;5.980;2022-11-20T02:26:27;99118.88;;;4.36;100.00
64713;BME280;51140;45.340;5.980;2022-11-20T02:28:54;99121.47;;;4.36;100.00
64713;BME280;51140;45.340;5.980;2022-11-20T02:31:20;99124.91;;;4.36;100.00
64713;BME280;51140;45.340;5.980;2022-11-20T02:33:45;99124.09;;;4.31;100.00
64713;BME280;51140;45.340;5.980;2022-11-20T02:36:14;99130.19;;;4.24;100.00
64713;BME280;51140;45.340;5.980;2022-11-20T02:38:40;99124.25;;;4.18;100.00
64713;BME280;51140;45.340;5.980;2022-11-20T02:41:06;99125.16;;;4.14;100.00
64713;BME280;51140;45.340;5.980;2022-11-20T02:43:31;99128.66;;;4.06;100.00
64713;BME280;51140;45.340;5.980;2022-11-20T02:45:57;99127.84;;;4.04;100.00
64713;BME280;51140;45.340;5.980;2022-11-20T02:48:22;99131.31;;;4.02;100.00
64713;BME280;51140;45.340;5.980;2022-11-20T02:50:47;99139.88;;;4.04;100.00
64713;BME280;51140;45.340;5.980;2022-11-20T02:53:13;99140.78;;;3.95;100.00
64713;BME280;51140;45.340;5.980;2022-11-20T02:55:38;99130.56;;;3.88;100.00
64713;BME280;51140;45.340;5.980;2022-11-20T02:58:04;99139.16;;;3.87;100.00
64713;BME280;51140;45.340;5.980;2022-11-20T03:00:29;99131.44;;;3.84;100.00
64713;BME280;51140;45.340;5.980;2022-11-20T03:02:55;99127.13;;;3.86;100.00
64713;BME280;51140;45.340;5.980;2022-11-20T03:05:20;99128.88;;;3.84;100.00
64713;BME280;51140;45.340;5.980;2022-11-20T03:07:46;99140.94;;;3.80;100.00
64713;BME280;51140;45.340;5.980;2022-11-20T03:10:11;99134.97;;;3.76;100.00
64713;BME280;51140;45.340;5.980;2022-11-20T03:12:37;99141.84;;;3.73;100.00
64713;BME280;51140;45.340;5.980;2022-11-20T03:15:02;99156.44;;;3.77;100.00
64713;BME280;51140;45.340;5.980;2022-11-20T03:17:28;99148.66;;;3.82;100.00
64713;BME280;51140;45.340;5.980;2022-11-20T03:19:54;99149.47;;;3.85;100.00
64713;BME280;51140;45.340;5.980;2022-11-20T03:22:20;99142.56;;;3.89;100.00
64713;BME280;51140;45.340;5.980;2022-11-20T03:24:45;99143.44;;;3.88;100.00
64713;BME280;51140;45.340;5.980;2022-11-20T03:27:11;99136.59;;;3.84;100.00
64713;BME280;51140;45.340;5.980;2022-11-20T03:29:36;99153.88;;;3.75;100.00
64713;BME280;51140;45.340;5.980;2022-11-20T03:32:01;99156.44;;;3.75;100.00
64713;BME280;51140;45.340;5.980;2022-11-20T03:34:27;99153.84;;;3.77;100.00
64713;BME280;51140;45.340;5.980;2022-11-20T03:36:52;99155.59;;;3.73;100.00
64713;BME280;51140;45.340;5.980;2022-11-20T03:39:17;99153.03;;;3.72;100.00
64713;BME280;51140;45.340;5.980;2022-11-20T03:41:43;99165.94;;;3.70;100.00
64713;BME280;51140;45.340;5.980;2022-11-20T03:44:10;99163.31;;;3.75;100.00
64713;BME280;51140;45.340;5.980;2022-11-20T03:46:36;99168.41;;;3.81;100.00
64713;BME280;51140;45.340;5.980;2022-11-20T03:49:02;99170.97;;;3.84;100.00
64713;BME280;51140;45.340;5.980;2022-11-20T03:51:30;99166.56;;;3.95;100.00
64713;BME280;51140;45.340;5.980;2022-11-20T03:53:58;99177.72;;;4.02;100.00
64713;BME280;51140;45.340;5.980;2022-11-20T03:56:27;99171.59;;;4.12;100.00
64713;BME280;51140;45.340;5.980;2022-11-20T03:58:53;99170.69;;;4.16;100.00
64713;BME280;51140;45.340;5.980;2022-11-20T04:01:21;99172.44;;;4.14;100.00
64713;BME280;51140;45.340;5.980;2022-11-20T04:03:47;99168.06;;;4.21;100.00
64713;BME280;51140;45.340;5.980;2022-11-20T04:06:18;99169.66;;;4.32;100.00
64713;BME280;51140;45.340;5.980;2022-11-20T04:08:43;99168.75;;;4.36;100.00
64713;BME280;51140;45.340;5.980;2022-11-20T04:13:34;99167.84;;;4.42;100.00
64713;BME280;51140;45.340;5.980;2022-11-20T04:15:59;99154.97;;;4.42;100.00
64713;BME280;51140;45.340;5.980;2022-11-20T04:18:25;99148.94;;;4.42;100.00
64713;BME280;51140;45.340;5.980;2022-11-20T04:20:50;99148.06;;;4.39;100.00
64713;BME280;51140;45.340;5.980;2022-11-20T04:23:15;99150.72;;;4.33;100.00
64713;BME280;51140;45.340;5.980;2022-11-20T04:25:41;99143.06;;;4.27;100.00
64713;BME280;51140;45.340;5.980;2022-11-20T04:28:06;99151.69;;;4.23;100.00
64713;BME280;51140;45.340;5.980;2022-11-20T04:30:31;99161.16;;;4.23;100.00
64713;BME280;51140;45.340;5.980;2022-11-20T04:32:57;99161.16;;;4.23;100.00
64713;BME280;51140;45.340;5.980;2022-11-20T04:35:22;99158.59;;;4.21;100.00
64713;BME280;51140;45.340;5.980;2022-11-20T04:37:51;99161.16;;;4.23;100.00
64713;BME280;51140;45.340;5.980;2022-11-20T04:40:16;99166.25;;;4.30;100.00
64713;BME280;51140;45.340;5.980;2022-11-20T04:42:42;99172.19;;;4.37;100.00
64713;BME280;51140;45.340;5.980;2022-11-20T04:45:07;99169.59;;;4.37;100.00
64713;BME280;51140;45.340;5.980;2022-11-20T04:47:33;99161.88;;;4.35;100.00
64713;BME280;51140;45.340;5.980;2022-11-20T04:49:58;99161.09;;;4.27;100.00
64713;BME280;51140;45.340;5.980;2022-11-20T04:52:24;99164.59;;;4.22;100.00
64713;BME280;51140;45.340;5.980;2022-11-20T04:54:49;99174.13;;;4.15;100.00
64713;BME280;51140;45.340;5.980;2022-11-20T04:57:17;99181.03;;;4.12;100.00
64713;BME280;51140;45.340;5.980;2022-11-20T04:59:43;99180.13;;;4.19;100.00
64713;BME280;51140;45.340;5.980;2022-11-20T05:02:08;99182.59;;;4.28;100.00
64713;BME280;51140;45.340;5.980;2022-11-20T05:04:34;99185.06;;;4.37;100.00
64713;BME280;51140;45.340;5.980;2022-11-20T05:06:59;99191.03;;;4.45;100.00
64713;BME280;51140;45.340;5.980;2022-11-20T05:09:24;99184.09;;;4.50;100.00
64713;BME280;51140;45.340;5.980;2022-11-20T05:11:50;99186.66;;;4.53;100.00
64713;BME280;51140;45.340;5.980;2022-11-20T05:14:15;99185.72;;;4.59;100.00
64713;BME280;51140;45.340;5.980;2022-11-20T05:16:41;99177.97;;;4.59;100.00
64713;BME280;51140;45.340;5.980;2022-11-20T05:19:06;99184.78;;;4.66;100.00
64713;BME280;51140;45.340;5.980;2022-11-20T05:21:32;99186.47;;;4.67;100.00
64713;BME280;51140;45.340;5.980;2022-11-20T05:23:57;99183.91;;;4.67;100.00
64713;BME280;51140;45.340;5.980;2022-11-20T05:26:23;99177.00;;;4.69;100.00
64713;BME280;51140;45.340;5.980;2022-11-20T05:28:49;99181.28;;;4.71;100.00
64713;BME280;51140;45.340;5.980;2022-11-20T05:31:17;99178.66;;;4.73;100.00
64713;BME280;51140;45.340;5.980;2022-11-20T05:33:44;99179.50;;;4.75;100.00
64713;BME280;51140;45.340;5.980;2022-11-20T05:36:11;99181.28;;;4.71;100.00
64713;BME280;51140;45.340;5.980;2022-11-20T05:38:37;99177.00;;;4.69;100.00
64713;BME280;51140;45.340;5.980;2022-11-20T05:41:12;99176.19;;;4.65;100.00
64713;BME280;51140;45.340;5.980;2022-11-20T05:43:39;99177.91;;;4.65;100.00
64713;BME280;51140;45.340;5.980;2022-11-20T05:46:06;99182.16;;;4.69;100.00
64713;BME280;51140;45.340;5.980;2022-11-20T05:48:32;99186.47;;;4.68;100.00
64713;BME280;51140;45.340;5.980;2022-11-20T05:50:59;99189.91;;;4.69;100.00
64713;BME280;51140;45.340;5.980;2022-11-20T05:53:25;99198.50;;;4.69;100.00
64713;BME280;51140;45.340;5.980;2022-11-20T05:56:11;99195.94;;;4.68;100.00
64713;BME280;51140;45.340;5.980;2022-11-20T05:58:37;99195.91;;;4.71;100.00
64713;BME280;51140;45.340;5.980;2022-11-20T06:01:23;99197.59;;;4.72;100.00
64713;BME280;51140;45.340;5.980;2022-11-20T06:03:48;99191.56;;;4.75;100.00
64713;BME280;51140;45.340;5.980;2022-11-20T06:06:16;99189.88;;;4.70;100.00
64713;BME280;51140;45.340;5.980;2022-11-20T06:08:42;99184.75;;;4.69;100.00
64713;BME280;51140;45.340;5.980;2022-11-20T06:11:10;99192.53;;;4.64;100.00
64713;BME280;51140;45.340;5.980;2022-11-20T06:13:36;99187.41;;;4.61;100.00
64713;BME280;51140;45.340;5.980;2022-11-20T06:16:02;99193.41;;;4.63;100.00
64713;BME280;51140;45.340;5.980;2022-11-20T06:18:28;99193.44;;;4.60;100.00
64713;BME280;51140;45.340;5.980;2022-11-20T06:21:23;99196.03;;;4.59;100.00
64713;BME280;51140;45.340;5.980;2022-11-20T06:23:50;99203.84;;;4.54;100.00
64713;BME280;51140;45.340;5.980;2022-11-20T06:26:18;99203.84;;;4.53;100.00
64713;BME280;51140;45.340;5.980;2022-11-20T06:28:44;99199.59;;;4.49;100.00
64713;BME280;51140;45.340;5.980;2022-11-20T06:31:11;99197.09;;;4.41;100.00
64713;BME280;51140;45.340;5.980;2022-11-20T06:33:37;99201.50;;;4.28;100.00
64713;BME280;51140;45.340;5.980;2022-11-20T06:36:03;99200.75;;;4.17;100.00
64713;BME280;51140;45.340;5.980;2022-11-20T06:38:29;99214.56;;;4.12;100.00
64713;BME280;51140;45.340;5.980;2022-11-20T06:40:55;99205.16;;;4.06;100.00
64713;BME280;51140;45.340;5.980;2022-11-20T06:43:22;99208.66;;;4.00;100.00
64713;BME280;51140;45.340;5.980;2022-11-20T06:45:55;99212.13;;;3.92;100.00
64713;BME280;51140;45.340;5.980;2022-11-20T06:48:21;99206.19;;;3.85;100.00
64713;BME280;51140;45.340;5.980;2022-11-20T06:50:47;99199.34;;;3.81;100.00
64713;BME280;51140;45.340;5.980;2022-11-20T06:55:48;99202.03;;;3.69;100.00
64713;BME280;51140;45.340;5.980;2022-11-20T06:58:14;99204.63;;;3.66;100.00
64713;BME280;51140;45.340;5.980;2022-11-20T07:00:41;99208.09;;;3.62;100.00
64713;BME280;51140;45.340;5.980;2022-11-20T07:03:08;99209.81;;;3.55;100.00
64713;BME280;51140;45.340;5.980;2022-11-20T07:05:34;99219.28;;;3.52;100.00
64713;BME280;51140;45.340;5.980;2022-11-20T07:08:00;99219.31;;;3.50;100.00
64713;BME280;51140;45.340;5.980;2022-11-20T07:10:26;99218.44;;;3.51;100.00
64713;BME280;51140;45.340;5.980;2022-11-20T07:12:52;99218.44;;;3.53;100.00
64713;BME280;51140;45.340;5.980;2022-11-20T07:15:19;99214.13;;;3.53;100.00
64713;BME280;51140;45.340;5.980;2022-11-20T07:17:45;99210.66;;;3.57;100.00
64713;BME280;51140;45.340;5.980;2022-11-20T07:20:11;99215.78;;;3.68;100.00
64713;BME280;51140;45.340;5.980;2022-11-20T07:22:37;99220.06;;;3.69;100.00
64713;BME280;51140;45.340;5.980;2022-11-20T07:25:02;99220.91;;;3.69;100.00
64713;BME280;51140;45.340;5.980;2022-11-20T07:27:28;99220.91;;;3.69;100.00
64713;BME280;51140;45.340;5.980;2022-11-20T07:29:54;99213.19;;;3.68;100.00
64713;BME280;51140;45.340;5.980;2022-11-20T07:32:19;99217.47;;;3.70;100.00
64713;BME280;51140;45.340;5.980;2022-11-20T07:34:44;99207.16;;;3.70;100.00
64713;BME280;51140;45.340;5.980;2022-11-20T07:37:10;99204.56;;;3.75;100.00
64713;BME280;51140;45.340;5.980;2022-11-20T07:39:35;99205.41;;;3.74;100.00
64713;BME280;51140;45.340;5.980;2022-11-20T07:42:01;99202.84;;;3.72;100.00
64713;BME280;51140;45.340;5.980;2022-11-20T07:44:26;99198.53;;;3.74;100.00
64713;BME280;51140;45.340;5.980;2022-11-20T07:46:51;99195.13;;;3.72;100.00
64713;BME280;51140;45.340;5.980;2022-11-20T07:49:17;99189.97;;;3.72;100.00
64713;BME280;51140;45.340;5.980;2022-11-20T07:51:42;99195.16;;;3.69;100.00
64713;BME280;51140;45.340;5.980;2022-11-20T07:54:07;99199.47;;;3.67;100.00
64713;BME280;51140;45.340;5.980;2022-11-20T07:56:33;99198.63;;;3.65;100.00
64713;BME280;51140;45.340;5.980;2022-11-20T07:58:58;99197.78;;;3.57;100.00
64713;BME280;51140;45.340;5.980;2022-11-20T08:01:23;99200.38;;;3.57;100.00
64713;BME280;51140;45.340;5.980;2022-11-20T08:03:49;99200.38;;;3.60;100.00
64713;BME280;51140;45.340;5.980;2022-11-20T08:06:14;99211.50;;;3.64;100.00
64713;BME280;51140;45.340;5.980;2022-11-20T08:08:40;99208.91;;;3.65;100.00
64713;BME280;51140;45.340;5.980;2022-11-20T08:11:06;99207.19;;;3.66;100.00
64713;BME280;51140;45.340;5.980;2022-11-20T08:13:50;99216.63;;;3.67;100.00
64713;BME280;51140;45.340;5.980;2022-11-20T08:16:34;99209.72;;;3.72;100.00
64713;BME280;51140;45.340;5.980;2022-11-20T08:18:59;99215.63;;;3.85;100.00
64713;BME280;51140;45.340;5.980;2022-11-20T08:21:25;99226.75;;;3.90;100.00
64713;BME280;51140;45.340;5.980;2022-11-20T08:23:50;99231.84;;;4.02;100.00
64713;BME280;51140;45.340;5.980;2022-11-20T08:26:16;99230.13;;;4.04;100.00
64713;BME280;51140;45.340;5.980;2022-11-20T08:28:41;99229.22;;;4.08;100.00
64713;BME280;51140;45.340;5.980;2022-11-20T08:31:07;99219.81;;;4.01;100.00
64713;BME280;51140;45.340;5.980;2022-11-20T08:33:32;99218.97;;;4.02;100.00
64713;BME280;51140;45.340;5.980;2022-11-20T08:36:02;99212.94;;;4.00;100.00
64713;BME280;51140;45.340;5.980;2022-11-20T08:38:29;99218.97;;;4.00;100.00
64713;BME280;51140;45.340;5.980;2022-11-20T08:40:58;99218.09;;;4.00;100.00
64713;BME280;51140;45.340;5.980;2022-11-20T08:43:42;99212.94;;;3.97;100.00
64713;BME280;51140;45.340;5.980;2022-11-20T08:46:08;99212.13;;;3.93;100.00
64713;BME280;51140;45.340;5.980;2022-11-20T08:48:33;99224.16;;;3.94;100.00
64713;BME280;51140;45.340;5.980;2022-11-20T08:50:59;99219.81;;;4.01;100.00
64713;BME280;51140;45.340;5.980;2022-11-20T08:53:25;99226.63;;;4.09;100.00
64713;BME280;51140;45.340;5.980;2022-11-20T08:55:50;99218.00;;;4.12;100.00
64713;BME280;51140;45.340;5.980;2022-11-20T08:58:16;99203.38;;;4.14;100.00
64713;BME280;51140;45.340;5.980;2022-11-20T09:00:41;99213.69;;;4.14;100.00
64713;BME280;51140;45.340;5.980;2022-11-20T09:03:06;99211.97;;;4.13;100.00
64713;BME280;51140;45.340;5.980;2022-11-20T09:05:31;99212.75;;;4.21;100.00
64713;BME280;51140;45.340;5.980;2022-11-20T09:07:57;99210.19;;;4.21;100.00
64713;BME280;51140;45.340;5.980;2022-11-20T09:10:23;99216.13;;;4.28;100.00
64713;BME280;51140;45.340;5.980;2022-11-20T09:12:49;99212.66;;;4.32;100.00
64713;BME280;51140;45.340;5.980;2022-11-20T09:15:14;99209.19;;;4.34;100.00
64713;BME280;51140;45.340;5.980;2022-11-20T09:17:40;99219.47;;;4.37;100.00
64713;BME280;51140;45.340;5.980;2022-11-20T09:20:05;99222.06;;;4.40;100.00
64713;BME280;51140;45.340;5.980;2022-11-20T09:22:31;99213.38;;;4.46;100.00
64713;BME280;51140;45.340;5.980;2022-11-20T09:24:56;99214.19;;;4.51;100.00
64713;BME280;51140;45.340;5.980;2022-11-20T09:27:22;99220.22;;;4.52;100.00
64713;BME280;51140;45.340;5.980;2022-11-20T09:29:47;99213.25;;;4.60;100.00
64713;BME280;51140;45.340;5.980;2022-11-20T09:32:13;99201.16;;;4.62;100.00
64713;BME280;51140;45.340;5.980;2022-11-20T09:34:38;99202.06;;;4.59;100.00
64713;BME280;51140;45.340;5.980;2022-11-20T09:37:03;99209.81;;;4.58;100.00
64713;BME280;51140;45.340;5.980;2022-11-20T09:39:29;99200.25;;;4.66;100.00
64713;BME280;51140;45.340;5.980;2022-11-20T09:45:02;99198.53;;;4.66;100.00
64713;BME280;51140;45.340;5.980;2022-11-20T09:55:43;99194.00;;;4.88;100.00
64713;BME280;51140;45.340;5.980;2022-11-20T09:58:19;99202.41;;;5.02;100.00
64713;BME280;51140;45.340;5.980;2022-11-20T10:00:47;99196.16;;;5.22;100.00
64713;BME280;51140;45.340;5.980;2022-11-20T10:03:21;99193.06;;;5.57;100.00
64713;BME280;51140;45.340;5.980;2022-11-20T10:05:54;99189.31;;;5.78;100.00
64713;BME280;51140;45.340;5.980;2022-11-20T10:08:27;99177.28;;;5.75;100.00
64713;BME280;51140;45.340;5.980;2022-11-20T10:19:05;99133.25;;;6.29;100.00
64713;BME280;51140;45.340;5.980;2022-11-20T10:30:18;99094.47;;;6.71;100.00
64713;BME280;51140;45.340;5.980;2022-11-20T10:35:48;99067.44;;;7.22;100.00
64713;BME280;51140;45.340;5.980;2022-11-20T10:38:31;99053.09;;;7.43;100.00
64713;BME280;51140;45.340;5.980;2022-11-20T10:41:02;99089.56;;;7.71;100.00
64713;BME280;51140;45.340;5.980;2022-11-20T10:43:48;99030.69;;;7.75;100.00
64713;BME280;51140;45.340;5.980;2022-11-20T10:46:20;99003.38;;;7.62;100.00
64713;BME280;51140;45.340;5.980;2022-11-20T10:48:49;98950.03;;;7.84;100.00
64713;BME280;51140;45.340;5.980;2022-11-20T10:54:30;98818.16;;;7.98;100.00
64713;BME280;51140;45.340;5.980;2022-11-20T10:57:07;98816.31;;;8.03;100.00
64713;BME280;51140;45.340;5.980;2022-11-20T10:59:55;98759.22;;;8.03;100.00
64713;BME280;51140;45.340;5.980;2022-11-20T11:02:29;98735.28;;;8.22;100.00
64713;BME280;51140;45.340;5.980;2022-11-20T11:04:56;98723.19;;;8.21;100.00
64713;BME280;51140;45.340;5.980;2022-11-20T11:07:30;98696.97;;;8.03;100.00
64713;BME280;51140;45.340;5.980;2022-11-20T11:09:59;98689.47;;;7.94;100.00
64713;BME280;51140;45.340;5.980;2022-11-20T11:12:27;98682.00;;;8.11;100.00
64713;BME280;51140;45.340;5.980;2022-11-20T11:14:54;98645.28;;;8.22;100.00
64713;BME280;51140;45.340;5.980;2022-11-20T11:20:18;98556.22;;;8.46;100.00
64713;BME280;51140;45.340;5.980;2022-11-20T11:22:49;98522.31;;;8.73;100.00
64713;BME280;51140;45.340;5.980;2022-11-20T11:25:32;98488.19;;;9.04;100.00
64713;BME280;51140;45.340;5.980;2022-11-20T11:28:23;98445.97;;;8.99;100.00
64713;BME280;51140;45.340;5.980;2022-11-20T11:30:51;98429.25;;;8.84;100.00
64713;BME280;51140;45.340;5.980;2022-11-20T11:33:27;98429.19;;;8.86;100.00
64713;BME280;51140;45.340;5.980;2022-11-20T11:36:02;98396.19;;;8.88;100.00
64713;BME280;51140;45.340;5.980;2022-11-20T11:38:35;98396.28;;;9.06;100.00
64713;BME280;51140;45.340;5.980;2022-11-20T11:41:02;98356.59;;;9.23;100.00
64713;BME280;51140;45.340;5.980;2022-11-20T11:43:30;98339.75;;;9.32;100.00
64713;BME280;51140;45.340;5.980;2022-11-20T11:46:32;98343.53;;;9.25;100.00
64713;BME280;51140;45.340;5.980;2022-11-20T11:49:13;98369.25;;;9.10;100.00
64713;BME280;51140;45.340;5.980;2022-11-20T11:52:03;98374.50;;;8.89;100.00
64713;BME280;51140;45.340;5.980;2022-11-20T11:57:04;98372.13;;;8.17;100.00
64713;BME280;51140;45.340;5.980;2022-11-20T11:59:44;98388.38;;;7.99;100.00
64713;BME280;51140;45.340;5.980;2022-11-20T12:02:31;98394.25;;;7.80;100.00
64713;BME280;51140;45.340;5.980;2022-11-20T12:05:05;98386.75;;;7.73;100.00
64713;BME280;51140;45.340;5.980;2022-11-20T12:10:00;98476.91;;;7.40;100.00
64713;BME280;51140;45.340;5.980;2022-11-20T12:12:38;98503.81;;;7.62;100.00
64713;BME280;51140;45.340;5.980;2022-11-20T12:15:11;98508.63;;;7.73;100.00
64713;BME280;51140;45.340;5.980;2022-11-20T12:17:37;98526.31;;;7.86;100.00
64713;BME280;51140;45.340;5.980;2022-11-20T12:20:11;98519.69;;;8.03;100.00
64713;BME280;51140;45.340;5.980;2022-11-20T12:25:24;98452.50;;;8.18;100.00
64713;BME280;51140;45.340;5.980;2022-11-20T12:30:17;98318.22;;;10.05;100.00
64713;BME280;51140;45.340;5.980;2022-11-20T12:38:41;98139.38;;;8.99;100.00
64713;BME280;51140;45.340;5.980;2022-11-20T12:50:17;98161.16;;;8.76;100.00
64713;BME280;51140;45.340;5.980;2022-11-20T12:52:57;98104.09;;;8.74;100.00
64713;BME280;51140;45.340;5.980;2022-11-20T13:00:54;98060.31;;;8.86;100.00
64713;BME280;51140;45.340;5.980;2022-11-20T13:03:39;98075.63;;;8.92;100.00
64713;BME280;51140;45.340;5.980;2022-11-20T13:08:39;98093.44;;;8.99;100.00
64713;BME280;51140;45.340;5.980;2022-11-20T13:11:16;98114.78;;;9.06;100.00
64713;BME280;51140;45.340;5.980;2022-11-20T13:18:49;98014.28;;;9.06;100.00
64713;BME280;51140;45.340;5.980;2022-11-20T13:21:21;97995.25;;;9.06;100.00
64713;BME280;51140;45.340;5.980;2022-11-20T13:23:47;98043.72;;;9.07;100.00
64713;BME280;51140;45.340;5.980;2022-11-20T13:26:25;97964.16;;;9.04;100.00
64713;BME280;51140;45.340;5.980;2022-11-20T13:29:19;97968.28;;;9.08;100.00
64713;BME280;51140;45.340;5.980;2022-11-20T13:31:47;97969.88;;;9.11;100.00
64713;BME280;51140;45.340;5.980;2022-11-20T13:34:27;98004.78;;;9.24;100.00
64713;BME280;51140;45.340;5.980;2022-11-20T13:36:55;97998.28;;;9.33;100.00
64713;BME280;51140;45.340;5.980;2022-11-20T13:39:32;97995.53;;;9.36;100.00
64713;BME280;51140;45.340;5.980;2022-11-20T13:42:20;98002.34;;;9.38;100.00
64713;BME280;51140;45.340;5.980;2022-11-20T13:44:53;98007.16;;;9.46;100.00
64713;BME280;51140;45.340;5.980;2022-11-20T13:47:26;98043.72;;;9.43;100.00
64713;BME280;51140;45.340;5.980;2022-11-20T13:49:53;98031.56;;;9.43;100.00
64713;BME280;51140;45.340;5.980;2022-11-20T13:57:59;97814.28;;;9.22;100.00
64713;BME280;51140;45.340;5.980;2022-11-20T14:00:28;97894.78;;;9.24;100.00
64713;BME280;51140;45.340;5.980;2022-11-20T14:03:07;97937.91;;;9.28;100.00
64713;BME280;51140;45.340;5.980;2022-11-20T14:05:38;98033.00;;;9.32;100.00
64713;BME280;51140;45.340;5.980;2022-11-20T14:08:06;97912.50;;;9.33;100.00
64713;BME280;51140;45.340;5.980;2022-11-20T14:10:36;97957.22;;;9.39;100.00
64713;BME280;51140;45.340;5.980;2022-11-20T14:13:30;97946.22;;;9.52;100.00
64713;BME280;51140;45.340;5.980;2022-11-20T14:15:58;97955.41;;;9.41;100.00
64713;BME280;51140;45.340;5.980;2022-11-20T14:18:26;97972.84;;;9.39;100.00
64713;BME280;51140;45.340;5.980;2022-11-20T14:20:52;98022.97;;;9.24;100.00
64713;BME280;51140;45.340;5.980;2022-11-20T14:23:28;98012.78;;;9.20;100.00
64713;BME280;51140;45.340;5.980;2022-11-20T14:25:54;98070.69;;;9.23;100.00
64713;BME280;51140;45.340;5.980;2022-11-20T14:28:26;98062.97;;;9.22;100.00
64713;BME280;51140;45.340;5.980;2022-11-20T14:30:51;98109.75;;;9.22;100.00
64713;BME280;51140;45.340;5.980;2022-11-20T14:33:18;98124.19;;;9.27;100.00
64713;BME280;51140;45.340;5.980;2022-11-20T14:35:47;98094.41;;;9.34;100.00